createdAt,value
2018-07-16T00:00:31.913Z,97962.06
2018-07-16T00:03:00.728Z,97965.38
2018-07-16T00:05:29.412Z,97958.34
2018-07-16T00:07:58.057Z,97955.37
2018-07-16T00:10:26.704Z,97954.36
2018-07-16T00:12:56.198Z,97952.99
2018-07-16T00:15:25.149Z,97946.85
2018-07-16T00:17:53.869Z,97950.73
2018-07-16T00:20:22.569Z,97947.55
2018-07-16T00:22:51.680Z,97951.73
2018-07-16T00:25:21.228Z,97947.34
2018-07-16T00:27:50.411Z,97944.70
2018-07-16T00:30:20.345Z,97947.78
2018-07-16T00:32:49.155Z,97948.36
2018-07-16T00:35:17.894Z,97947.00
2018-07-16T00:37:46.709Z,97950.97
2018-07-16T00:40:15.443Z,97957.70
2018-07-16T00:42:44.723Z,97957.34
2018-07-16T00:45:13.864Z,97955.88
2018-07-16T00:47:42.415Z,97955.19
2018-07-16T00:50:11.300Z,97949.84
2018-07-16T00:52:39.843Z,97943.92
2018-07-16T00:55:08.469Z,97950.64
2018-07-16T00:57:37.209Z,97950.98
2018-07-16T01:00:06.173Z,97954.73
2018-07-16T01:02:34.818Z,97955.66
2018-07-16T01:05:03.620Z,97952.34
2018-07-16T01:07:32.324Z,97951.66
2018-07-16T01:10:01.224Z,97957.26
2018-07-16T01:12:30.035Z,97949.49
2018-07-16T01:14:59.559Z,97950.75
2018-07-16T01:17:28.454Z,97947.81
2018-07-16T01:19:57.134Z,97949.39
2018-07-16T01:22:26.658Z,97946.09
2018-07-16T01:24:55.543Z,97946.88
2018-07-16T01:27:24.762Z,97952.69
2018-07-16T01:29:53.629Z,97947.58
2018-07-16T01:32:22.844Z,97947.80
2018-07-16T01:34:52.103Z,97950.98
2018-07-16T01:37:21.224Z,97952.59
2018-07-16T01:39:49.943Z,97949.86
2018-07-16T01:42:18.469Z,97949.86
2018-07-16T01:44:47.375Z,97943.80
2018-07-16T01:47:16.065Z,97941.98
2018-07-16T01:49:44.745Z,97938.25
2018-07-16T01:52:13.479Z,97932.09
2018-07-16T01:54:42.240Z,97936.53
2018-07-16T01:57:11.214Z,97936.53
2018-07-16T01:59:39.849Z,97932.09
2018-07-16T02:02:08.549Z,97931.88
2018-07-16T02:04:37.367Z,97933.88
2018-07-16T02:07:06.388Z,97926.25
2018-07-16T02:09:35.308Z,97928.42
2018-07-16T02:12:03.939Z,97927.43
2018-07-16T02:14:33.243Z,97925.50
2018-07-16T02:17:02.464Z,97930.16
2018-07-16T02:19:31.397Z,97929.48
2018-07-16T02:21:59.959Z,97936.27
2018-07-16T02:24:29.644Z,97942.77
2018-07-16T02:26:58.319Z,97937.06
2018-07-16T02:29:27.753Z,97944.11
2018-07-16T02:31:56.404Z,97949.25
2018-07-16T02:34:24.990Z,97957.78
2018-07-16T02:36:53.601Z,97951.98
2018-07-16T02:39:22.389Z,97956.17
2018-07-16T02:41:51.266Z,97952.91
2018-07-16T02:44:21.248Z,97953.45
2018-07-16T02:46:49.901Z,97959.07
2018-07-16T02:49:18.495Z,97955.99
2018-07-16T02:51:48.166Z,97961.80
2018-07-16T02:54:17.363Z,97955.98
2018-07-16T02:56:45.962Z,97959.17
2018-07-16T02:59:14.793Z,97958.61
2018-07-16T03:01:43.517Z,97954.06
2018-07-16T03:04:12.667Z,97955.75
2018-07-16T03:06:42.204Z,97951.09
2018-07-16T03:09:11.114Z,97954.38
2018-07-16T03:11:40.062Z,97952.99
2018-07-16T03:14:08.791Z,97953.00
2018-07-16T03:16:37.447Z,97963.67
2018-07-16T03:19:07.281Z,97964.13
2018-07-16T03:21:35.990Z,97962.87
2018-07-16T03:24:04.644Z,97964.23
2018-07-16T03:26:33.929Z,97970.84
2018-07-16T03:29:02.970Z,97967.06
2018-07-16T03:31:32.168Z,97967.27
2018-07-16T03:34:01.085Z,97957.72
2018-07-16T03:36:29.759Z,97954.08
2018-07-16T03:38:58.299Z,97957.61
2018-07-16T03:41:26.883Z,97948.61
2018-07-16T03:43:55.559Z,97951.09
2018-07-16T03:46:24.561Z,97950.77
2018-07-16T03:48:53.320Z,97949.28
2018-07-16T03:51:21.990Z,97950.83
2018-07-16T03:53:50.554Z,97952.44
2018-07-16T03:56:19.120Z,97954.26
2018-07-16T03:58:47.821Z,97960.39
2018-07-16T04:01:16.891Z,97960.17
2018-07-16T04:03:45.592Z,97961.08
2018-07-16T04:06:14.525Z,97964.02
2018-07-16T04:08:43.279Z,97959.27
2018-07-16T04:11:12.061Z,97952.20
2018-07-16T04:13:41.273Z,97956.65
2018-07-16T04:16:10.414Z,97951.34
2018-07-16T04:18:39.211Z,97955.44
2018-07-16T04:21:08.179Z,97957.05
2018-07-16T04:23:36.761Z,97951.49
2018-07-16T04:26:05.509Z,97943.41
2018-07-16T04:28:34.407Z,97942.74
2018-07-16T04:31:03.142Z,97954.33
2018-07-16T04:33:31.966Z,97953.41
2018-07-16T04:36:00.618Z,97948.88
2018-07-16T04:38:29.571Z,97958.21
2018-07-16T04:40:58.341Z,97955.27
2018-07-16T04:43:26.987Z,97949.91
2018-07-16T04:45:56.087Z,97952.56
2018-07-16T04:48:24.820Z,97952.80
2018-07-16T04:50:53.529Z,97950.86
2018-07-16T04:53:23.051Z,97953.48
2018-07-16T04:55:51.706Z,97945.08
2018-07-16T04:58:21.264Z,97946.66
2018-07-16T05:00:50.099Z,97948.72
2018-07-16T05:03:18.880Z,97946.89
2018-07-16T05:05:48.009Z,97941.42
2018-07-16T05:08:16.975Z,97944.81
2018-07-16T05:10:45.840Z,97952.05
2018-07-16T05:13:14.733Z,97952.58
2018-07-16T05:15:43.401Z,97952.43
2018-07-16T05:18:12.190Z,97945.08
2018-07-16T05:20:41.090Z,97950.47
2018-07-16T05:23:09.870Z,97948.88
2018-07-16T05:25:38.586Z,97942.42
2018-07-16T05:28:07.188Z,97944.56
2018-07-16T05:30:36.495Z,97944.47
2018-07-16T05:33:05.144Z,97938.23
2018-07-16T05:35:33.759Z,97940.66
2018-07-16T05:38:02.509Z,97941.34
2018-07-16T05:40:31.269Z,97944.80
2018-07-16T05:43:00.506Z,97943.16
2018-07-16T05:45:29.741Z,97944.06
2018-07-16T05:47:58.835Z,97948.02
2018-07-16T05:50:27.561Z,97941.72
2018-07-16T05:52:56.382Z,97940.01
2018-07-16T05:55:25.036Z,97943.90
2018-07-16T05:57:53.860Z,97938.53
2018-07-16T06:00:22.824Z,97935.45
2018-07-16T06:02:52.305Z,97932.81
2018-07-16T06:05:21.695Z,97932.30
2018-07-16T06:07:50.879Z,97935.32
2018-07-16T06:10:19.641Z,97924.36
2018-07-16T06:12:48.961Z,97928.08
2018-07-16T06:15:17.620Z,97934.76
2018-07-16T06:17:46.807Z,97935.98
2018-07-16T06:20:15.935Z,97932.74
2018-07-16T06:22:45.140Z,97936.43
2018-07-16T06:25:13.985Z,97931.21
2018-07-16T06:27:43.435Z,97932.11
2018-07-16T06:30:12.391Z,97931.45
2018-07-16T06:32:41.212Z,97926.66
2018-07-16T06:35:10.199Z,97927.02
2018-07-16T06:37:39.517Z,97929.09
2018-07-16T06:40:08.391Z,97922.60
2018-07-16T06:42:37.115Z,97923.81
2018-07-16T06:45:07.195Z,97924.34
2018-07-16T06:47:36.296Z,97924.63
2018-07-16T06:50:05.145Z,97917.49
2018-07-16T06:52:33.866Z,97919.91
2018-07-16T06:55:02.719Z,97913.31
2018-07-16T06:57:31.490Z,97910.55
2018-07-16T07:00:00.240Z,97912.08
2018-07-16T07:02:28.917Z,97917.05
2018-07-16T07:04:57.922Z,97915.16
2018-07-16T07:07:26.804Z,97914.58
2018-07-16T07:09:55.564Z,97908.58
2018-07-16T07:12:24.671Z,97909.12
2018-07-16T07:14:53.570Z,97904.44
2018-07-16T07:17:22.885Z,97905.48
2018-07-16T07:19:51.560Z,97911.40
2018-07-16T07:22:20.282Z,97916.17
2018-07-16T07:24:48.890Z,97910.31
2018-07-16T07:27:18.197Z,97907.19
2018-07-16T07:29:46.976Z,97910.53
2018-07-16T07:32:15.656Z,97911.22
2018-07-16T07:34:44.370Z,97907.68
2018-07-16T07:37:13.911Z,97906.59
2018-07-16T07:39:43.140Z,97906.33
2018-07-16T07:42:12.317Z,97904.39
2018-07-16T07:44:41.015Z,97905.61
2018-07-16T07:47:09.891Z,97903.92
2018-07-16T07:49:38.728Z,97907.19
2018-07-16T07:52:07.505Z,97908.23
2018-07-16T07:54:36.598Z,97903.92
2018-07-16T07:57:06.796Z,97896.84
2018-07-16T07:59:36.137Z,97895.05
2018-07-16T08:02:05.919Z,97890.23
2018-07-16T08:04:34.742Z,97888.76
2018-07-16T08:07:08.857Z,97883.84
2018-07-16T08:09:37.647Z,97881.34
2018-07-16T08:12:07.247Z,97881.84
2018-07-16T08:14:36.742Z,97880.23
2018-07-16T08:17:05.938Z,97879.28
2018-07-16T08:19:34.718Z,97874.91
2018-07-16T08:22:03.847Z,97867.77
2018-07-16T08:24:33.001Z,97871.12
2018-07-16T08:27:01.858Z,97867.83
2018-07-16T08:29:30.450Z,97864.20
2018-07-16T08:31:59.931Z,97866.44
2018-07-16T08:34:28.536Z,97863.12
2018-07-16T08:36:57.231Z,97866.80
2018-07-16T08:39:26.171Z,97868.48
2018-07-16T08:41:54.766Z,97859.67
2018-07-16T08:44:24.036Z,97866.83
2018-07-16T08:46:52.872Z,97869.58
2018-07-16T08:49:22.297Z,97864.47
2018-07-16T08:51:50.953Z,97870.56
2018-07-16T08:54:19.819Z,97875.22
2018-07-16T08:56:49.227Z,97866.95
2018-07-16T08:59:17.871Z,97871.12
2018-07-16T09:01:46.577Z,97876.92
2018-07-16T09:04:15.596Z,97869.77
2018-07-16T09:06:45.172Z,97871.97
2018-07-16T09:09:13.912Z,97869.55
2018-07-16T09:11:42.678Z,97871.73
2018-07-16T09:14:11.203Z,97868.48
2018-07-16T09:16:39.950Z,97861.00
2018-07-16T09:19:08.857Z,97853.34
2018-07-16T09:21:37.742Z,97859.87
2018-07-16T09:24:06.589Z,97853.15
2018-07-16T09:26:35.926Z,97857.36
2018-07-16T09:29:05.272Z,97857.91
2018-07-16T09:31:33.987Z,97856.42
2018-07-16T09:34:02.677Z,97864.05
2018-07-16T09:36:31.753Z,97856.19
2018-07-16T09:39:00.585Z,97859.47
2018-07-16T09:41:30.150Z,97858.48
2018-07-16T09:43:59.454Z,97851.66
2018-07-16T09:46:28.310Z,97854.59
2018-07-16T09:48:58.157Z,97850.05
2018-07-16T09:51:27.017Z,97845.58
2018-07-16T09:53:55.961Z,97843.39
2018-07-16T09:56:24.894Z,97843.55
2018-07-16T09:58:53.856Z,97841.65
2018-07-16T10:01:27.976Z,97841.90
2018-07-16T10:03:57.162Z,97832.28
2018-07-16T10:06:26.063Z,97839.67
2018-07-16T10:08:54.696Z,97840.35
2018-07-16T10:11:23.382Z,97831.38
2018-07-16T10:13:52.142Z,97833.48
2018-07-16T10:16:20.845Z,97823.78
2018-07-16T10:18:50.516Z,97824.73
2018-07-16T10:21:19.300Z,97825.11
2018-07-16T10:23:47.916Z,97819.81
2018-07-16T10:26:16.749Z,97824.08
2018-07-16T10:28:45.403Z,97818.50
2018-07-16T10:31:14.827Z,97813.09
2018-07-16T10:33:43.683Z,97813.77
2018-07-16T10:36:13.248Z,97812.64
2018-07-16T10:38:42.241Z,97807.69
2018-07-16T10:41:11.706Z,97810.50
2018-07-16T10:43:40.757Z,97812.08
2018-07-16T10:46:09.663Z,97810.91
2018-07-16T10:48:38.267Z,97808.77
2018-07-16T10:51:07.523Z,97813.23
2018-07-16T10:53:36.606Z,97806.02
2018-07-16T10:56:05.523Z,97802.85
2018-07-16T10:58:34.272Z,97808.55
2018-07-16T11:01:03.241Z,97797.11
2018-07-16T11:03:32.154Z,97792.24
2018-07-16T11:06:06.759Z,97794.82
2018-07-16T11:08:35.551Z,97790.52
2018-07-16T11:11:04.601Z,97792.18
2018-07-16T11:13:33.401Z,97780.31
2018-07-16T11:16:02.137Z,97781.95
2018-07-16T11:18:31.011Z,97777.81
2018-07-16T11:21:00.062Z,97777.17
2018-07-16T11:23:29.288Z,97773.01
2018-07-16T11:25:58.772Z,97771.28
2018-07-16T11:28:27.921Z,97778.38
2018-07-16T11:30:56.948Z,97774.45
2018-07-16T11:33:25.718Z,97767.46
2018-07-16T11:35:54.555Z,97780.47
2018-07-16T11:38:23.261Z,97769.06
2018-07-16T11:40:52.071Z,97771.01
2018-07-16T11:43:21.087Z,97767.84
2018-07-16T11:45:50.114Z,97765.95
2018-07-16T11:48:18.915Z,97757.66
2018-07-16T11:50:47.724Z,97747.30
2018-07-16T11:53:16.589Z,97745.59
2018-07-16T11:55:45.243Z,97748.23
2018-07-16T11:58:14.132Z,97740.29
2018-07-16T12:00:42.954Z,97744.99
2018-07-16T12:03:12.328Z,97738.66
2018-07-16T12:05:41.275Z,97735.42
2018-07-16T12:08:10.307Z,97725.48
2018-07-16T12:10:39.302Z,97727.83
2018-07-16T12:13:08.924Z,97728.77
2018-07-16T12:15:38.101Z,97724.94
2018-07-16T12:18:07.192Z,97724.95
2018-07-16T12:20:36.108Z,97723.16
2018-07-16T12:23:04.958Z,97726.81
2018-07-16T12:25:34.064Z,97717.89
2018-07-16T12:28:02.779Z,97711.85
2018-07-16T12:30:31.452Z,97714.80
2018-07-16T12:33:00.248Z,97715.63
2018-07-16T12:35:29.068Z,97711.81
2018-07-16T12:37:58.089Z,97713.77
2018-07-16T12:40:27.040Z,97719.58
2018-07-16T12:42:55.589Z,97712.55
2018-07-16T12:45:24.672Z,97707.62
2018-07-16T12:47:53.523Z,97697.82
2018-07-16T12:50:22.282Z,97694.45
2018-07-16T12:52:51.432Z,97694.20
2018-07-16T12:55:20.546Z,97690.17
2018-07-16T12:57:49.905Z,97681.44
2018-07-16T13:00:19.124Z,97692.19
2018-07-16T13:02:47.964Z,97683.03
2018-07-16T13:05:16.626Z,97678.21
2018-07-16T13:07:45.553Z,97679.92
2018-07-16T13:10:14.257Z,97675.08
2018-07-16T13:12:43.109Z,97659.92
2018-07-16T13:15:11.944Z,97670.54
2018-07-16T13:17:40.742Z,97658.33
2018-07-16T13:20:10.102Z,97661.09
2018-07-16T13:22:39.203Z,97659.23
2018-07-16T13:25:07.801Z,97655.32
2018-07-16T13:27:36.648Z,97649.77
2018-07-16T13:30:06.095Z,97653.48
2018-07-16T13:32:35.263Z,97650.31
2018-07-16T13:35:05.261Z,97654.52
2018-07-16T13:37:34.148Z,97651.09
2018-07-16T13:40:02.753Z,97639.73
2018-07-16T13:42:32.039Z,97636.96
2018-07-16T13:45:01.298Z,97640.83
2018-07-16T13:47:30.411Z,97638.25
2018-07-16T13:49:59.325Z,97641.88
2018-07-16T13:52:28.068Z,97640.89
2018-07-16T13:54:57.102Z,97641.39
2018-07-16T13:57:26.377Z,97632.00
2018-07-16T13:59:54.989Z,97639.23
2018-07-16T14:02:23.829Z,97632.70
2018-07-16T14:04:53.347Z,97631.63
2018-07-16T14:07:22.067Z,97622.32
2018-07-16T14:09:50.788Z,97623.67
2018-07-16T14:12:20.649Z,97619.89
2018-07-16T14:14:49.717Z,97623.27
2018-07-16T14:17:18.608Z,97627.25
2018-07-16T14:19:47.374Z,97624.72
2018-07-16T14:22:16.670Z,97616.91
2018-07-16T14:24:45.919Z,97620.87
2018-07-16T14:27:15.075Z,97616.31
2018-07-16T14:29:43.725Z,97609.95
2018-07-16T14:32:12.598Z,97609.21
2018-07-16T14:34:41.453Z,97608.23
2018-07-16T14:37:10.125Z,97608.56
2018-07-16T14:39:38.828Z,97611.81
2018-07-16T14:42:07.568Z,97607.16
2018-07-16T14:44:36.651Z,97605.45
2018-07-16T14:47:05.506Z,97605.97
2018-07-16T14:49:35.040Z,97601.77
2018-07-16T14:52:04.580Z,97600.98
2018-07-16T14:54:33.550Z,97597.08
2018-07-16T14:57:02.452Z,97594.77
2018-07-16T14:59:31.153Z,97600.18
2018-07-16T15:01:59.908Z,97595.31
2018-07-16T15:04:28.533Z,97589.35
2018-07-16T15:06:57.934Z,97595.28
2018-07-16T15:09:26.844Z,97594.60
2018-07-16T15:11:55.534Z,97591.30
2018-07-16T15:14:24.324Z,97595.03
2018-07-16T15:16:53.394Z,97593.59
2018-07-16T15:19:23.032Z,97591.49
2018-07-16T15:21:52.245Z,97596.11
2018-07-16T15:24:20.931Z,97594.77
2018-07-16T15:26:50.226Z,97598.23
2018-07-16T15:29:18.809Z,97593.13
2018-07-16T15:31:47.867Z,97597.70
2018-07-16T15:34:16.931Z,97592.42
2018-07-16T15:36:45.653Z,97591.63
2018-07-16T15:39:14.604Z,97590.48
2018-07-16T15:41:43.331Z,97585.23
2018-07-16T15:44:12.029Z,97582.34
2018-07-16T15:46:41.369Z,97581.06
2018-07-16T15:49:10.218Z,97577.06
2018-07-16T15:51:39.028Z,97570.91
2018-07-16T15:54:08.306Z,97574.07
2018-07-16T15:56:37.031Z,97570.94
2018-07-16T15:59:05.758Z,97571.77
2018-07-16T16:01:34.463Z,97556.00
2018-07-16T16:04:03.338Z,97575.84
2018-07-16T16:06:32.228Z,97577.46
2018-07-16T16:09:00.889Z,97581.03
2018-07-16T16:11:29.711Z,97573.66
2018-07-16T16:13:58.498Z,97575.16
2018-07-16T16:16:27.325Z,97575.63
2018-07-16T16:18:56.003Z,97571.29
2018-07-16T16:21:24.694Z,97577.02
2018-07-16T16:23:53.548Z,97576.65
2018-07-16T16:26:22.684Z,97568.75
2018-07-16T16:28:51.563Z,97561.02
2018-07-16T16:31:20.548Z,97561.31
2018-07-16T16:33:49.208Z,97561.78
2018-07-16T16:36:18.027Z,97547.53
2018-07-16T16:38:47.392Z,97552.72
2018-07-16T16:41:16.048Z,97550.47
2018-07-16T16:43:45.678Z,97553.83
2018-07-16T16:46:15.043Z,97553.33
2018-07-16T16:48:43.957Z,97556.09
2018-07-16T16:51:13.116Z,97549.95
2018-07-16T16:53:41.789Z,97554.48
2018-07-16T16:56:10.848Z,97546.33
2018-07-16T16:58:40.067Z,97557.42
2018-07-16T17:01:09.654Z,97557.55
2018-07-16T17:03:38.568Z,97551.06
2018-07-16T17:06:07.354Z,97547.73
2018-07-16T17:08:36.220Z,97548.95
2018-07-16T17:11:05.148Z,97559.90
2018-07-16T17:13:34.105Z,97558.54
2018-07-16T17:16:03.079Z,97555.40
2018-07-16T17:18:32.094Z,97558.66
2018-07-16T17:21:01.004Z,97555.73
2018-07-16T17:23:33.410Z,97560.66
2018-07-16T17:26:02.064Z,97563.85
2018-07-16T17:28:32.013Z,97561.73
2018-07-16T17:31:01.003Z,97557.20
2018-07-16T17:33:29.773Z,97560.22
2018-07-16T17:35:58.524Z,97561.31
2018-07-16T17:38:27.438Z,97556.27
2018-07-16T17:40:56.903Z,97561.43
2018-07-16T17:43:26.098Z,97560.75
2018-07-16T17:45:54.947Z,97561.46
2018-07-16T17:48:24.735Z,97561.21
2018-07-16T17:50:53.782Z,97572.36
2018-07-16T17:53:23.038Z,97576.06
2018-07-16T17:55:51.924Z,97585.47
2018-07-16T17:58:20.754Z,97580.81
2018-07-16T18:00:49.684Z,97583.31
2018-07-16T18:03:20.009Z,97589.05
2018-07-16T18:05:48.889Z,97584.55
2018-07-16T18:08:17.871Z,97583.41
2018-07-16T18:10:46.850Z,97592.11
2018-07-16T18:13:15.936Z,97591.94
2018-07-16T18:15:45.001Z,97583.48
2018-07-16T18:18:14.134Z,97581.93
2018-07-16T18:20:43.006Z,97583.89
2018-07-16T18:23:11.795Z,97592.22
2018-07-16T18:25:40.878Z,97590.65
2018-07-16T18:28:10.283Z,97594.23
2018-07-16T18:30:39.300Z,97599.56
2018-07-16T18:33:08.280Z,97603.13
2018-07-16T18:35:37.416Z,97604.14
2018-07-16T18:38:06.071Z,97601.19
2018-07-16T18:40:34.936Z,97604.16
2018-07-16T18:43:03.841Z,97604.59
2018-07-16T18:45:32.815Z,97612.47
2018-07-16T18:48:01.876Z,97614.85
2018-07-16T18:50:30.399Z,97616.41
2018-07-16T18:52:59.020Z,97621.91
2018-07-16T18:55:28.637Z,97623.08
2018-07-16T18:57:57.804Z,97633.49
2018-07-16T19:00:27.031Z,97630.47
2018-07-16T19:02:55.908Z,97637.73
2018-07-16T19:05:25.594Z,97645.14
2018-07-16T19:07:54.496Z,97640.98
2018-07-16T19:10:23.181Z,97638.76
2018-07-16T19:12:52.759Z,97644.80
2018-07-16T19:15:26.329Z,97639.41
2018-07-16T19:17:56.255Z,97651.56
2018-07-16T19:20:25.614Z,97651.99
2018-07-16T19:22:54.350Z,97655.04
2018-07-16T19:25:23.472Z,97663.67
2018-07-16T19:27:52.513Z,97666.34
2018-07-16T19:30:21.800Z,97675.04
2018-07-16T19:32:50.837Z,97671.86
2018-07-16T19:35:23.762Z,97681.75
2018-07-16T19:37:53.573Z,97686.29
2018-07-16T19:40:22.636Z,97686.81
2018-07-16T19:42:51.847Z,97694.20
2018-07-16T19:45:20.869Z,97691.92
2018-07-16T19:47:50.127Z,97693.63
2018-07-16T19:50:19.496Z,97701.00
2018-07-16T19:52:48.566Z,97708.92
2018-07-16T19:55:18.194Z,97711.91
2018-07-16T19:57:47.027Z,97714.14
2018-07-16T20:00:16.348Z,97715.86
2018-07-16T20:02:45.475Z,97711.94
2018-07-16T20:05:14.731Z,97711.20
2018-07-16T20:07:43.452Z,97707.81
2018-07-16T20:10:13.186Z,97707.45
2018-07-16T20:12:42.335Z,97712.70
2018-07-16T20:15:15.620Z,97715.41
2018-07-16T20:17:44.787Z,97715.08
2018-07-16T20:20:13.893Z,97716.34
2018-07-16T20:22:43.170Z,97716.77
2018-07-16T20:25:12.409Z,97716.63
2018-07-16T20:27:41.190Z,97720.36
2018-07-16T20:30:10.761Z,97730.48
2018-07-16T20:32:40.575Z,97725.56
2018-07-16T20:35:10.161Z,97722.48
2018-07-16T20:37:38.970Z,97727.62
2018-07-16T20:40:07.750Z,97733.18
2018-07-16T20:42:36.456Z,97735.55
2018-07-16T20:45:05.271Z,97739.72
2018-07-16T20:47:34.230Z,97737.31
2018-07-16T20:50:03.530Z,97736.24
2018-07-16T20:52:32.844Z,97733.07
2018-07-16T20:55:02.162Z,97735.55
2018-07-16T20:57:31.251Z,97744.23
2018-07-16T21:00:00.585Z,97740.20
2018-07-16T21:02:29.676Z,97740.70
2018-07-16T21:04:58.384Z,97746.74
2018-07-16T21:07:27.216Z,97753.25
2018-07-16T21:09:57.572Z,97751.28
2018-07-16T21:12:26.199Z,97749.71
2018-07-16T21:14:55.791Z,97752.41
2018-07-16T21:17:25.991Z,97754.71
2018-07-16T21:19:55.167Z,97754.53
2018-07-16T21:22:24.972Z,97743.27
2018-07-16T21:24:54.249Z,97752.09
2018-07-16T21:27:22.896Z,97746.83
2018-07-16T21:29:52.194Z,97748.17
2018-07-16T21:32:21.271Z,97749.67
2018-07-16T21:34:50.009Z,97751.22
2018-07-16T21:37:18.807Z,97750.11
2018-07-16T21:39:47.560Z,97745.63
2018-07-16T21:42:16.356Z,97744.70
2018-07-16T21:44:45.081Z,97751.70
2018-07-16T21:47:13.824Z,97745.14
2018-07-16T21:49:42.620Z,97751.73
2018-07-16T21:52:11.360Z,97753.66
2018-07-16T21:54:40.281Z,97751.41
2018-07-16T21:57:09.070Z,97756.23
2018-07-16T21:59:37.870Z,97755.64
2018-07-16T22:02:07.027Z,97756.37
2018-07-16T22:04:36.102Z,97765.69
2018-07-16T22:07:04.881Z,97763.20
2018-07-16T22:09:33.764Z,97769.80
2018-07-16T22:12:02.917Z,97776.09
2018-07-16T22:14:32.385Z,97772.67
2018-07-16T22:17:01.596Z,97770.93
2018-07-16T22:19:30.601Z,97768.44
2018-07-16T22:21:59.909Z,97768.31
2018-07-16T22:24:28.921Z,97779.92
2018-07-16T22:26:57.599Z,97775.37
2018-07-16T22:29:26.491Z,97780.30
2018-07-16T22:31:55.231Z,97782.81
2018-07-16T22:34:24.165Z,97782.00
2018-07-16T22:36:52.917Z,97785.00
2018-07-16T22:39:21.590Z,97785.53
2018-07-16T22:41:50.326Z,97787.25
2018-07-16T22:44:19.010Z,97786.23
2018-07-16T22:46:48.204Z,97793.30
2018-07-16T22:49:17.129Z,97788.41
2018-07-16T22:51:45.876Z,97792.20
2018-07-16T22:54:14.550Z,97796.05
2018-07-16T22:56:43.247Z,97797.17
2018-07-16T22:59:12.224Z,97799.91
2018-07-16T23:01:42.063Z,97799.92
2018-07-16T23:04:10.786Z,97796.96
2018-07-16T23:06:39.585Z,97804.02
2018-07-16T23:09:08.292Z,97810.73
2018-07-16T23:11:37.114Z,97803.22
2018-07-16T23:14:05.896Z,97810.70
2018-07-16T23:16:34.602Z,97812.87
2018-07-16T23:19:03.241Z,97813.45
2018-07-16T23:21:32.374Z,97820.71
2018-07-16T23:24:01.002Z,97819.80
2018-07-16T23:26:29.806Z,97817.53
2018-07-16T23:28:58.547Z,97817.98
2018-07-16T23:31:27.341Z,97824.00
2018-07-16T23:33:55.959Z,97830.36
2018-07-16T23:36:24.791Z,97828.09
2018-07-16T23:38:53.636Z,97834.22
2018-07-16T23:41:22.256Z,97836.27
2018-07-16T23:43:50.816Z,97834.67
2018-07-16T23:46:19.757Z,97836.27
2018-07-16T23:48:48.836Z,97834.09
2018-07-16T23:51:17.372Z,97830.56
2018-07-16T23:53:46.434Z,97829.87
2018-07-16T23:56:15.860Z,97827.14
2018-07-16T23:58:44.416Z,97829.87
